createdAt,value
2022-07-26T00:01:39.629Z,21.31
2022-07-26T00:04:07.710Z,21.24
2022-07-26T00:06:34.792Z,21.17
2022-07-26T00:09:01.758Z,21.15
2022-07-26T00:11:30.361Z,21.17
2022-07-26T00:13:57.510Z,21.20
2022-07-26T00:16:24.506Z,21.24
2022-07-26T00:18:51.537Z,21.26
2022-07-26T00:21:18.541Z,21.21
2022-07-26T00:23:45.621Z,21.27
2022-07-26T00:26:12.640Z,21.23
2022-07-26T00:28:41.305Z,21.27
2022-07-26T00:31:08.983Z,21.25
2022-07-26T00:33:35.975Z,21.24
2022-07-26T00:36:02.996Z,21.17
2022-07-26T00:38:29.882Z,21.12
2022-07-26T00:40:56.869Z,21.05
2022-07-26T00:43:23.987Z,20.99
2022-07-26T00:45:51.237Z,20.94
2022-07-26T00:48:19.176Z,20.91
2022-07-26T00:50:46.646Z,20.87
2022-07-26T00:53:13.696Z,20.81
2022-07-26T00:55:40.874Z,20.81
2022-07-26T00:58:07.858Z,20.82
2022-07-26T01:00:35.105Z,20.76
2022-07-26T01:03:02.631Z,20.72
2022-07-26T01:05:29.895Z,20.71
2022-07-26T01:07:56.922Z,20.76
2022-07-26T01:10:23.888Z,20.75
2022-07-26T01:12:51.081Z,20.71
2022-07-26T01:15:18.915Z,20.65
2022-07-26T01:17:45.961Z,20.66
2022-07-26T01:20:14.360Z,20.68
2022-07-26T01:22:41.606Z,20.72
2022-07-26T01:25:09.710Z,20.75
2022-07-26T01:27:39.520Z,20.70
2022-07-26T01:30:12.073Z,20.67
2022-07-26T01:32:39.448Z,20.65
2022-07-26T01:35:07.978Z,20.68
2022-07-26T01:37:35.191Z,20.75
2022-07-26T01:40:03.135Z,20.79
2022-07-26T01:42:31.732Z,20.83
2022-07-26T01:44:58.651Z,20.84
2022-07-26T01:47:25.628Z,20.80
2022-07-26T01:49:52.523Z,20.74
2022-07-26T01:52:19.535Z,20.65
2022-07-26T01:54:46.453Z,20.61
2022-07-26T01:57:13.407Z,20.56
2022-07-26T01:59:40.345Z,20.50
2022-07-26T02:02:07.549Z,20.36
2022-07-26T02:04:52.981Z,20.30
2022-07-26T02:07:20.033Z,20.29
2022-07-26T02:09:46.928Z,20.21
2022-07-26T02:12:15.330Z,20.16
2022-07-26T02:14:42.832Z,20.13
2022-07-26T02:17:09.807Z,20.13
2022-07-26T02:19:37.607Z,20.13
2022-07-26T02:22:20.415Z,20.18
2022-07-26T02:24:48.704Z,20.26
2022-07-26T02:27:16.678Z,20.32
2022-07-26T02:29:43.708Z,20.34
2022-07-26T02:32:11.217Z,20.27
2022-07-26T02:34:38.274Z,20.21
2022-07-26T02:37:05.244Z,20.21
2022-07-26T02:39:32.279Z,20.07
2022-07-26T02:42:02.263Z,20.03
2022-07-26T02:44:30.500Z,20.02
2022-07-26T02:46:57.506Z,19.97
2022-07-26T02:49:24.475Z,20.06
2022-07-26T02:51:52.212Z,20.02
2022-07-26T02:54:19.220Z,20.01
2022-07-26T02:56:46.146Z,20.00
2022-07-26T02:59:13.137Z,19.97
2022-07-26T03:01:40.373Z,19.95
2022-07-26T03:04:08.202Z,19.96
2022-07-26T03:06:35.542Z,19.93
2022-07-26T03:09:02.495Z,19.96
2022-07-26T03:11:29.392Z,19.99
2022-07-26T03:13:56.430Z,20.03
2022-07-26T03:16:27.464Z,20.00
2022-07-26T03:18:56.899Z,19.95
2022-07-26T03:21:24.859Z,19.96
2022-07-26T03:23:51.852Z,19.95
2022-07-26T03:26:18.807Z,19.96
2022-07-26T03:28:45.778Z,20.00
2022-07-26T03:31:13.258Z,20.03
2022-07-26T03:33:42.837Z,20.05
2022-07-26T03:36:11.403Z,20.04
2022-07-26T03:38:38.724Z,20.05
2022-07-26T03:41:06.395Z,20.06
2022-07-26T03:43:36.250Z,20.10
2022-07-26T03:46:03.762Z,20.15
2022-07-26T03:48:31.739Z,20.10
2022-07-26T03:50:58.760Z,20.06
2022-07-26T03:53:25.696Z,20.07
2022-07-26T03:56:11.881Z,20.05
2022-07-26T03:58:38.830Z,19.98
2022-07-26T04:01:05.827Z,19.97
2022-07-26T04:03:32.867Z,19.90
2022-07-26T04:05:59.981Z,19.92
2022-07-26T04:08:28.437Z,19.89
2022-07-26T04:10:55.394Z,19.84
2022-07-26T04:13:24.015Z,19.82
2022-07-26T04:15:51.025Z,19.79
2022-07-26T04:18:18.119Z,19.79
2022-07-26T04:20:45.672Z,19.76
2022-07-26T04:23:12.707Z,19.74
2022-07-26T04:25:40.828Z,19.71
2022-07-26T04:28:08.958Z,19.70
2022-07-26T04:30:35.990Z,19.66
2022-07-26T04:33:03.372Z,19.62
2022-07-26T04:35:30.607Z,19.58
2022-07-26T04:37:57.756Z,19.57
2022-07-26T04:40:25.752Z,19.58
2022-07-26T04:42:52.701Z,19.56
2022-07-26T04:45:20.937Z,19.54
2022-07-26T04:47:50.286Z,19.55
2022-07-26T04:50:19.694Z,19.52
2022-07-26T04:52:48.010Z,19.48
2022-07-26T04:55:15.888Z,19.49
2022-07-26T04:57:43.086Z,19.45
2022-07-26T05:00:22.199Z,19.50
2022-07-26T05:02:55.946Z,19.54
2022-07-26T05:05:24.767Z,19.56
2022-07-26T05:07:58.963Z,19.67
2022-07-26T05:10:36.025Z,19.73
2022-07-26T05:13:05.668Z,19.72
2022-07-26T05:15:35.408Z,19.69
2022-07-26T05:18:06.857Z,19.66
2022-07-26T05:20:35.165Z,19.68
2022-07-26T05:23:02.372Z,19.70
2022-07-26T05:25:29.470Z,19.75
2022-07-26T05:27:56.499Z,19.79
2022-07-26T05:30:23.490Z,19.86
2022-07-26T05:32:50.599Z,19.86
2022-07-26T05:35:17.584Z,19.91
2022-07-26T05:37:44.738Z,20.02
2022-07-26T05:40:12.640Z,20.02
2022-07-26T05:42:39.688Z,20.10
2022-07-26T05:45:07.795Z,20.23
2022-07-26T05:47:34.802Z,20.33
2022-07-26T05:50:01.852Z,20.37
2022-07-26T05:52:28.898Z,20.47
2022-07-26T05:54:56.063Z,20.56
2022-07-26T05:57:23.006Z,20.57
2022-07-26T05:59:50.411Z,20.67
2022-07-26T06:02:17.421Z,20.61
2022-07-26T06:04:45.513Z,20.56
2022-07-26T06:07:15.192Z,20.49
2022-07-26T06:09:42.142Z,20.56
2022-07-26T06:12:09.191Z,20.57
2022-07-26T06:14:36.244Z,20.64
2022-07-26T06:17:04.559Z,20.61
2022-07-26T06:19:31.924Z,20.58
2022-07-26T06:21:59.236Z,20.56
2022-07-26T06:24:26.288Z,20.51
2022-07-26T06:26:57.996Z,20.47
2022-07-26T06:29:32.949Z,20.44
2022-07-26T06:32:00.259Z,20.48
2022-07-26T06:34:27.449Z,20.52
2022-07-26T06:36:54.703Z,20.61
2022-07-26T06:39:21.720Z,20.69
2022-07-26T06:41:48.905Z,20.69
2022-07-26T06:44:22.786Z,20.70
2022-07-26T06:46:49.856Z,20.66
2022-07-26T06:49:21.872Z,20.73
2022-07-26T06:51:49.549Z,20.82
2022-07-26T06:54:16.639Z,20.83
2022-07-26T06:56:43.810Z,20.89
2022-07-26T06:59:10.739Z,20.96
2022-07-26T07:01:58.694Z,20.91
2022-07-26T07:04:24.774Z,20.92
2022-07-26T07:06:51.700Z,20.88
2022-07-26T07:09:19.857Z,20.88
2022-07-26T07:11:51.822Z,20.84
2022-07-26T07:14:23.429Z,20.85
2022-07-26T07:16:50.476Z,20.88
2022-07-26T07:19:17.780Z,20.96
2022-07-26T07:21:44.750Z,21.07
2022-07-26T07:24:12.124Z,21.17
2022-07-26T07:26:39.266Z,21.20
2022-07-26T07:29:06.308Z,21.14
2022-07-26T07:31:48.525Z,20.98
2022-07-26T07:34:18.117Z,20.79
2022-07-26T07:36:47.356Z,20.53
2022-07-26T07:39:17.350Z,20.47
2022-07-26T07:41:46.019Z,20.42
2022-07-26T07:44:13.484Z,20.47
2022-07-26T07:46:41.225Z,20.53
2022-07-26T07:49:08.639Z,20.43
2022-07-26T07:51:36.474Z,20.32
2022-07-26T07:54:05.841Z,20.27
2022-07-26T07:56:34.033Z,20.20
2022-07-26T07:59:01.156Z,20.03
2022-07-26T08:01:40.534Z,19.83
2022-07-26T08:04:09.718Z,19.64
2022-07-26T08:06:37.162Z,19.59
2022-07-26T08:09:05.698Z,19.58
2022-07-26T08:11:33.825Z,19.52
2022-07-26T08:14:01.930Z,19.43
2022-07-26T08:16:29.449Z,19.49
2022-07-26T08:18:57.145Z,19.79
2022-07-26T08:21:35.709Z,20.14
2022-07-26T08:24:03.182Z,20.28
2022-07-26T08:26:30.275Z,20.43
2022-07-26T08:28:59.589Z,20.51
2022-07-26T08:31:28.513Z,20.57
2022-07-26T08:33:56.095Z,20.51
2022-07-26T08:36:23.756Z,20.46
2022-07-26T08:38:50.893Z,20.37
2022-07-26T08:41:18.793Z,20.19
2022-07-26T08:43:51.180Z,20.05
2022-07-26T08:46:27.698Z,19.97
2022-07-26T08:48:58.370Z,19.92
2022-07-26T08:51:26.409Z,19.87
2022-07-26T08:54:05.274Z,19.79
2022-07-26T08:56:40.950Z,19.82
2022-07-26T08:59:20.896Z,19.95
2022-07-26T09:02:06.488Z,20.04
2022-07-26T09:04:43.676Z,20.08
2022-07-26T09:07:18.251Z,20.05
2022-07-26T09:10:16.083Z,19.94
2022-07-26T09:12:44.346Z,19.88
2022-07-26T09:15:21.228Z,19.75
2022-07-26T09:17:53.355Z,19.50
2022-07-26T09:20:27.813Z,19.28
2022-07-26T09:23:11.669Z,19.16
2022-07-26T09:25:43.022Z,19.17
2022-07-26T09:28:29.710Z,19.15
2022-07-26T09:31:03.229Z,19.27
2022-07-26T09:33:51.247Z,19.57
2022-07-26T09:36:19.573Z,19.93
2022-07-26T09:38:50.338Z,20.11
2022-07-26T09:41:33.212Z,20.20
2022-07-26T09:44:05.274Z,20.39
2022-07-26T09:46:35.402Z,20.62
2022-07-26T09:49:20.064Z,20.69
2022-07-26T09:51:50.554Z,20.75
2022-07-26T09:54:21.092Z,20.92
2022-07-26T09:56:51.625Z,21.24
2022-07-26T09:59:23.608Z,21.62
2022-07-26T10:01:53.181Z,22.14
2022-07-26T10:04:21.057Z,22.46
2022-07-26T10:06:49.212Z,22.54
2022-07-26T10:09:17.134Z,22.52
2022-07-26T10:12:00.211Z,22.58
2022-07-26T10:14:32.877Z,22.58
2022-07-26T10:17:01.400Z,22.56
2022-07-26T10:19:45.771Z,22.49
2022-07-26T10:22:35.847Z,22.49
2022-07-26T10:25:18.033Z,22.50
2022-07-26T10:27:57.611Z,22.52
2022-07-26T10:30:33.588Z,22.56
2022-07-26T10:33:15.925Z,22.54
2022-07-26T10:35:43.613Z,22.40
2022-07-26T10:38:15.716Z,22.36
2022-07-26T10:41:08.428Z,22.21
2022-07-26T10:43:41.134Z,22.11
2022-07-26T10:46:18.952Z,22.00
2022-07-26T10:49:08.722Z,22.00
2022-07-26T10:51:39.251Z,22.04
2022-07-26T10:54:12.877Z,22.09
2022-07-26T10:56:41.179Z,22.07
2022-07-26T10:59:08.619Z,21.91
2022-07-26T11:01:45.438Z,21.85
2022-07-26T11:04:20.023Z,21.76
2022-07-26T11:06:48.502Z,21.71
2022-07-26T11:09:17.306Z,21.68
2022-07-26T11:11:46.838Z,21.71
2022-07-26T11:14:17.548Z,21.72
2022-07-26T11:16:50.437Z,21.80
2022-07-26T11:19:26.083Z,21.83
2022-07-26T11:21:56.154Z,21.79
2022-07-26T11:24:23.263Z,21.70
2022-07-26T11:26:50.475Z,21.63
2022-07-26T11:29:37.353Z,21.66
2022-07-26T11:32:21.990Z,21.90
2022-07-26T11:35:00.196Z,22.08
2022-07-26T11:37:27.727Z,22.22
2022-07-26T11:39:54.880Z,22.22
2022-07-26T11:42:22.155Z,22.12
2022-07-26T11:44:50.322Z,22.15
2022-07-26T11:47:20.360Z,22.26
2022-07-26T11:49:52.354Z,22.28
2022-07-26T11:52:36.389Z,22.30
2022-07-26T11:55:03.632Z,22.36
2022-07-26T11:57:32.228Z,22.48
2022-07-26T12:00:00.784Z,22.57
2022-07-26T12:02:38.349Z,22.65
2022-07-26T12:05:21.709Z,22.72
2022-07-26T12:08:07.171Z,22.78
2022-07-26T12:10:34.518Z,22.86
2022-07-26T12:13:15.870Z,22.72
2022-07-26T12:15:52.030Z,22.62
2022-07-26T12:18:30.281Z,22.40
2022-07-26T12:21:08.015Z,22.20
2022-07-26T12:23:50.093Z,22.09
2022-07-26T12:26:25.295Z,21.96
2022-07-26T12:28:53.351Z,21.75
2022-07-26T12:31:27.456Z,21.55
2022-07-26T12:33:58.430Z,21.29
2022-07-26T12:36:26.976Z,21.21
2022-07-26T12:38:58.741Z,21.24
2022-07-26T12:41:52.462Z,21.26
2022-07-26T12:44:30.159Z,21.33
2022-07-26T12:46:57.517Z,21.36
2022-07-26T12:49:24.604Z,21.49
2022-07-26T12:51:51.630Z,21.65
2022-07-26T12:54:18.567Z,21.87
2022-07-26T12:56:46.423Z,22.03
2022-07-26T12:59:17.959Z,22.21
2022-07-26T13:01:45.051Z,22.35
2022-07-26T13:04:12.436Z,22.49
2022-07-26T13:06:39.690Z,22.57
2022-07-26T13:09:06.610Z,22.58
2022-07-26T13:11:33.639Z,22.51
2022-07-26T13:14:01.083Z,22.50
2022-07-26T13:16:28.165Z,22.49
2022-07-26T13:18:55.290Z,22.57
2022-07-26T13:21:22.218Z,22.70
2022-07-26T13:23:49.153Z,22.85
2022-07-26T13:26:16.086Z,22.93
2022-07-26T13:28:43.675Z,22.95
2022-07-26T13:31:11.701Z,22.92
2022-07-26T13:33:39.514Z,22.84
2022-07-26T13:36:06.565Z,22.59
2022-07-26T13:38:33.635Z,22.46
2022-07-26T13:41:02.330Z,22.41
2022-07-26T13:43:32.981Z,22.51
2022-07-26T13:46:00.004Z,22.45
2022-07-26T13:48:27.129Z,22.27
2022-07-26T13:50:55.192Z,22.11
2022-07-26T13:53:22.333Z,22.04
2022-07-26T13:55:49.431Z,22.05
2022-07-26T13:58:16.580Z,22.07
2022-07-26T14:00:43.536Z,22.03
2022-07-26T14:03:10.780Z,21.98
2022-07-26T14:05:37.849Z,21.95
2022-07-26T14:08:05.350Z,22.01
2022-07-26T14:10:32.791Z,22.01
2022-07-26T14:12:59.797Z,21.93
2022-07-26T14:15:26.747Z,21.86
2022-07-26T14:17:53.915Z,21.79
2022-07-26T14:20:21.474Z,21.74
2022-07-26T14:22:53.166Z,21.79
2022-07-26T14:25:21.492Z,21.80
2022-07-26T14:27:49.375Z,21.75
2022-07-26T14:30:16.412Z,21.75
2022-07-26T14:32:43.418Z,21.93
2022-07-26T14:35:11.005Z,22.04
2022-07-26T14:37:43.649Z,22.04
2022-07-26T14:40:14.867Z,22.02
2022-07-26T14:42:42.093Z,21.96
2022-07-26T14:45:09.989Z,21.99
2022-07-26T14:47:43.508Z,22.08
2022-07-26T14:50:12.766Z,22.16
2022-07-26T14:52:43.431Z,22.22
2022-07-26T14:55:11.000Z,22.21
2022-07-26T14:57:40.161Z,22.30
2022-07-26T15:00:15.576Z,22.28
2022-07-26T15:02:46.983Z,22.19
2022-07-26T15:05:16.147Z,22.08
2022-07-26T15:07:43.765Z,22.16
2022-07-26T15:10:14.176Z,22.25
2022-07-26T15:12:42.907Z,22.39
2022-07-26T15:15:11.090Z,22.59
2022-07-26T15:17:38.456Z,22.81
2022-07-26T15:20:06.500Z,22.89
2022-07-26T15:22:33.798Z,23.09
2022-07-26T15:25:00.714Z,23.03
2022-07-26T15:27:28.077Z,23.01
2022-07-26T15:30:03.573Z,22.91
2022-07-26T15:32:33.031Z,22.85
2022-07-26T15:35:00.031Z,22.75
2022-07-26T15:37:27.367Z,22.67
2022-07-26T15:39:54.328Z,22.63
2022-07-26T15:42:23.177Z,22.59
2022-07-26T15:44:50.726Z,22.52
2022-07-26T15:47:43.485Z,22.35
2022-07-26T15:50:07.379Z,22.27
2022-07-26T15:52:38.609Z,22.19
2022-07-26T15:55:08.000Z,22.11
2022-07-26T15:57:35.678Z,22.00
2022-07-26T16:00:05.589Z,21.95
2022-07-26T16:02:40.563Z,21.85
2022-07-26T16:05:09.634Z,21.78
2022-07-26T16:07:37.117Z,21.67
2022-07-26T16:10:05.231Z,21.74
2022-07-26T16:12:33.172Z,21.76
2022-07-26T16:15:00.119Z,21.79
2022-07-26T16:17:27.144Z,21.81
2022-07-26T16:19:54.103Z,21.86
2022-07-26T16:22:21.123Z,21.95
2022-07-26T16:24:53.319Z,22.08
2022-07-26T16:27:30.208Z,22.16
2022-07-26T16:29:57.230Z,22.27
2022-07-26T16:32:24.293Z,22.42
2022-07-26T16:34:51.294Z,22.45
2022-07-26T16:37:18.482Z,22.37
2022-07-26T16:39:45.450Z,22.21
2022-07-26T16:42:12.371Z,22.11
2022-07-26T16:44:39.523Z,21.96
2022-07-26T16:47:06.529Z,21.84
2022-07-26T16:49:33.693Z,21.71
2022-07-26T16:52:00.712Z,21.62
2022-07-26T16:54:27.696Z,21.60
2022-07-26T16:56:54.613Z,21.60
2022-07-26T16:59:21.814Z,21.55
2022-07-26T17:01:48.850Z,21.45
2022-07-26T17:04:16.672Z,21.36
2022-07-26T17:07:01.742Z,21.42
2022-07-26T17:09:31.401Z,21.40
2022-07-26T17:12:00.655Z,21.38
2022-07-26T17:14:31.350Z,21.34
2022-07-26T17:16:58.941Z,21.32
2022-07-26T17:19:25.897Z,21.27
2022-07-26T17:21:52.913Z,21.23
2022-07-26T17:24:19.888Z,21.22
2022-07-26T17:26:48.026Z,21.29
2022-07-26T17:29:15.214Z,21.38
2022-07-26T17:31:42.113Z,21.38
2022-07-26T17:34:09.302Z,21.35
2022-07-26T17:36:36.952Z,21.31
2022-07-26T17:39:05.098Z,21.34
2022-07-26T17:41:33.634Z,21.35
2022-07-26T17:44:02.968Z,21.44
2022-07-26T17:46:32.517Z,21.46
2022-07-26T17:49:00.153Z,21.43
2022-07-26T17:51:27.177Z,21.49
2022-07-26T17:53:54.229Z,21.60
2022-07-26T17:56:21.149Z,21.72
2022-07-26T17:58:48.123Z,21.78
2022-07-26T18:01:15.113Z,21.76
2022-07-26T18:03:42.074Z,21.72
2022-07-26T18:06:09.152Z,21.62
2022-07-26T18:08:36.321Z,21.52
2022-07-26T18:11:04.788Z,21.40
2022-07-26T18:13:31.848Z,21.28
2022-07-26T18:16:01.844Z,21.12
2022-07-26T18:18:32.571Z,21.08
2022-07-26T18:20:59.645Z,21.06
2022-07-26T18:23:26.678Z,21.08
2022-07-26T18:25:53.784Z,21.05
2022-07-26T18:28:20.864Z,21.09
2022-07-26T18:30:47.775Z,21.04
2022-07-26T18:33:14.720Z,21.06
2022-07-26T18:35:41.742Z,20.98
2022-07-26T18:38:09.298Z,20.84
2022-07-26T18:40:36.594Z,20.70
2022-07-26T18:43:03.985Z,20.59
2022-07-26T18:45:31.037Z,20.51
2022-07-26T18:47:58.395Z,20.48
2022-07-26T18:50:27.188Z,20.40
2022-07-26T18:52:59.300Z,20.37
2022-07-26T18:55:26.271Z,20.31
2022-07-26T18:57:53.455Z,20.26
2022-07-26T19:00:22.592Z,20.18
2022-07-26T19:02:51.937Z,20.09
2022-07-26T19:05:20.411Z,20.01
2022-07-26T19:07:47.436Z,19.96
2022-07-26T19:10:14.722Z,19.92
2022-07-26T19:12:43.638Z,19.84
2022-07-26T19:15:11.329Z,19.71
2022-07-26T19:17:38.989Z,19.60
2022-07-26T19:20:08.392Z,19.45
2022-07-26T19:22:36.552Z,19.26
2022-07-26T19:25:06.125Z,19.22
2022-07-26T19:27:33.093Z,19.17
2022-07-26T19:30:00.022Z,19.08
2022-07-26T19:32:30.475Z,19.01
2022-07-26T19:35:00.365Z,18.97
2022-07-26T19:37:27.334Z,18.93
2022-07-26T19:39:58.989Z,18.82
2022-07-26T19:42:26.029Z,18.73
2022-07-26T19:44:52.942Z,18.57
2022-07-26T19:47:20.109Z,18.55
2022-07-26T19:49:47.044Z,18.46
2022-07-26T19:52:14.416Z,18.47
2022-07-26T19:54:41.349Z,18.46
2022-07-26T19:57:08.681Z,18.46
2022-07-26T19:59:35.599Z,18.42
2022-07-26T20:02:02.977Z,18.41
2022-07-26T20:04:30.334Z,18.44
2022-07-26T20:06:57.282Z,18.36
2022-07-26T20:09:24.227Z,18.33
2022-07-26T20:11:51.252Z,18.30
2022-07-26T20:14:21.342Z,18.47
2022-07-26T20:16:54.347Z,18.70
2022-07-26T20:19:24.385Z,18.74
2022-07-26T20:21:51.300Z,18.84
2022-07-26T20:24:18.908Z,18.80
2022-07-26T20:26:46.104Z,18.73
2022-07-26T20:29:13.465Z,18.66
2022-07-26T20:31:40.631Z,18.61
2022-07-26T20:34:07.672Z,18.53
2022-07-26T20:36:34.677Z,18.49
2022-07-26T20:39:02.121Z,18.50
2022-07-26T20:41:33.825Z,18.51
2022-07-26T20:44:01.159Z,18.49
2022-07-26T20:46:28.182Z,18.50
2022-07-26T20:48:55.473Z,18.52
2022-07-26T20:51:22.667Z,18.47
2022-07-26T20:53:49.755Z,18.43
2022-07-26T20:56:16.813Z,18.33
2022-07-26T20:58:44.025Z,18.26
2022-07-26T21:01:12.416Z,18.24
2022-07-26T21:03:39.857Z,18.26
2022-07-26T21:06:06.924Z,18.17
2022-07-26T21:08:34.087Z,18.12
2022-07-26T21:11:01.277Z,18.09
2022-07-26T21:13:28.301Z,18.16
2022-07-26T21:15:55.368Z,18.22
2022-07-26T21:18:22.409Z,18.22
2022-07-26T21:20:49.450Z,18.12
2022-07-26T21:23:18.397Z,17.98
2022-07-26T21:25:45.746Z,17.76
2022-07-26T21:28:12.729Z,17.65
2022-07-26T21:30:39.679Z,17.53
2022-07-26T21:33:07.203Z,17.41
2022-07-26T21:35:34.446Z,17.34
2022-07-26T21:38:01.572Z,17.34
2022-07-26T21:40:28.573Z,17.39
2022-07-26T21:42:55.488Z,17.44
2022-07-26T21:45:22.408Z,17.56
2022-07-26T21:47:49.374Z,17.68
2022-07-26T21:50:16.302Z,17.80
2022-07-26T21:52:43.292Z,17.80
2022-07-26T21:55:10.432Z,17.77
2022-07-26T21:57:45.382Z,17.72
2022-07-26T22:00:15.457Z,17.73
2022-07-26T22:02:42.702Z,17.75
2022-07-26T22:05:28.507Z,17.74
2022-07-26T22:07:55.979Z,17.76
2022-07-26T22:10:23.138Z,17.81
2022-07-26T22:12:50.267Z,17.86
2022-07-26T22:15:17.293Z,17.88
2022-07-26T22:17:44.313Z,17.83
2022-07-26T22:20:12.467Z,17.80
2022-07-26T22:22:39.603Z,17.77
2022-07-26T22:25:06.852Z,17.75
2022-07-26T22:27:33.916Z,17.70
2022-07-26T22:30:00.956Z,17.64
2022-07-26T22:32:27.979Z,17.55
2022-07-26T22:34:55.149Z,17.41
2022-07-26T22:37:22.099Z,17.28
2022-07-26T22:39:49.037Z,17.20
2022-07-26T22:42:16.386Z,17.11
2022-07-26T22:44:43.701Z,17.04
2022-07-26T22:47:10.848Z,16.99
2022-07-26T22:49:37.866Z,17.01
2022-07-26T22:52:05.151Z,17.01
2022-07-26T22:54:32.276Z,16.99
2022-07-26T22:56:59.441Z,16.96
2022-07-26T22:59:26.412Z,17.02
2022-07-26T23:01:53.403Z,17.08
2022-07-26T23:04:20.370Z,17.06
2022-07-26T23:06:48.319Z,16.93
2022-07-26T23:09:15.230Z,16.80
2022-07-26T23:11:42.238Z,16.68
2022-07-26T23:14:09.152Z,16.69
2022-07-26T23:16:36.165Z,16.70
2022-07-26T23:19:03.493Z,16.71
2022-07-26T23:21:30.459Z,16.61
2022-07-26T23:23:57.509Z,16.45
2022-07-26T23:26:24.480Z,16.27
2022-07-26T23:28:51.593Z,16.16
2022-07-26T23:31:18.618Z,16.05
2022-07-26T23:33:52.482Z,15.90
2022-07-26T23:36:30.092Z,15.81
2022-07-26T23:38:59.363Z,15.72
2022-07-26T23:41:28.101Z,15.73
2022-07-26T23:43:56.522Z,15.64
2022-07-26T23:46:25.036Z,15.61
2022-07-26T23:48:52.450Z,15.57
2022-07-26T23:51:19.642Z,15.53
2022-07-26T23:53:47.199Z,15.55
2022-07-26T23:56:15.400Z,15.53
2022-07-26T23:58:43.131Z,15.52
